createdAt,value
2022-08-19T00:02:06.651Z,77.49
2022-08-19T00:04:38.722Z,77.81
2022-08-19T00:07:10.821Z,78.13
2022-08-19T00:09:42.848Z,78.41
2022-08-19T00:12:16.113Z,78.70
2022-08-19T00:14:48.136Z,78.67
2022-08-19T00:17:20.148Z,78.15
2022-08-19T00:19:52.272Z,78.27
2022-08-19T00:22:24.315Z,78.61
2022-08-19T00:24:56.271Z,78.49
2022-08-19T00:27:29.405Z,78.25
2022-08-19T00:30:03.818Z,77.71
2022-08-19T00:32:35.791Z,77.83
2022-08-19T00:35:08.821Z,78.62
2022-08-19T00:37:44.263Z,78.39
2022-08-19T00:40:17.511Z,78.29
2022-08-19T00:42:49.658Z,77.51
2022-08-19T00:45:25.253Z,77.71
2022-08-19T00:47:57.378Z,76.31
2022-08-19T00:50:29.382Z,75.99
2022-08-19T00:53:05.292Z,75.48
2022-08-19T00:55:38.872Z,75.27
2022-08-19T00:58:18.624Z,75.24
2022-08-19T01:00:50.597Z,74.50
2022-08-19T01:03:23.883Z,74.95
2022-08-19T01:05:56.880Z,75.04
2022-08-19T01:08:29.182Z,75.19
2022-08-19T01:11:01.924Z,75.52
2022-08-19T01:13:48.951Z,76.00
2022-08-19T01:16:25.330Z,77.01
2022-08-19T01:19:00.381Z,77.04
2022-08-19T01:21:45.056Z,77.12
2022-08-19T01:24:17.081Z,76.96
2022-08-19T01:26:49.409Z,76.70
2022-08-19T01:29:21.465Z,76.03
2022-08-19T01:31:56.120Z,75.40
2022-08-19T01:34:28.187Z,75.28
2022-08-19T01:37:00.131Z,75.25
2022-08-19T01:39:32.112Z,75.04
2022-08-19T01:42:05.373Z,75.33
2022-08-19T01:44:38.766Z,74.93
2022-08-19T01:47:10.868Z,74.77
2022-08-19T01:49:42.896Z,74.54
2022-08-19T01:52:14.861Z,74.18
2022-08-19T01:54:46.831Z,74.57
2022-08-19T01:57:18.767Z,74.93
2022-08-19T01:59:51.389Z,74.83
2022-08-19T02:02:23.465Z,75.01
2022-08-19T02:04:55.876Z,73.79
2022-08-19T02:07:30.777Z,73.31
2022-08-19T02:10:10.520Z,73.40
2022-08-19T02:12:45.276Z,74.25
2022-08-19T02:15:20.478Z,74.74
2022-08-19T02:17:52.847Z,75.30
2022-08-19T02:20:25.083Z,75.68
2022-08-19T02:22:57.112Z,75.86
2022-08-19T02:25:29.414Z,76.23
2022-08-19T02:28:01.442Z,76.78
2022-08-19T02:30:33.803Z,77.04
2022-08-19T02:33:06.379Z,77.14
2022-08-19T02:35:38.363Z,77.80
2022-08-19T02:38:28.711Z,77.69
2022-08-19T02:41:03.281Z,77.86
2022-08-19T02:43:39.639Z,76.80
2022-08-19T02:46:29.820Z,76.98
2022-08-19T02:49:06.383Z,77.00
2022-08-19T02:51:43.538Z,77.07
2022-08-19T02:54:16.567Z,77.30
2022-08-19T02:56:48.546Z,78.10
2022-08-19T02:59:21.171Z,78.26
2022-08-19T03:01:55.152Z,77.77
2022-08-19T03:04:27.372Z,77.51
2022-08-19T03:07:07.136Z,77.75
2022-08-19T03:09:43.878Z,77.90
2022-08-19T03:12:15.839Z,77.57
2022-08-19T03:14:47.837Z,77.65
2022-08-19T03:17:20.381Z,77.41
2022-08-19T03:19:52.321Z,77.49
2022-08-19T03:22:24.344Z,77.84
2022-08-19T03:24:56.306Z,77.44
2022-08-19T03:27:34.177Z,76.99
2022-08-19T03:30:07.970Z,76.89
2022-08-19T03:32:45.477Z,77.02
2022-08-19T03:35:17.927Z,76.27
2022-08-19T03:37:49.985Z,76.03
2022-08-19T03:40:21.975Z,75.36
2022-08-19T03:42:53.953Z,75.54
2022-08-19T03:45:28.559Z,75.54
2022-08-19T03:48:01.607Z,75.03
2022-08-19T03:50:33.545Z,75.21
2022-08-19T03:53:05.566Z,75.03
2022-08-19T03:55:42.780Z,74.70
2022-08-19T03:58:14.748Z,74.56
2022-08-19T04:00:46.736Z,74.92
2022-08-19T04:03:19.807Z,75.11
2022-08-19T04:05:51.994Z,75.18
2022-08-19T04:08:24.121Z,75.58
2022-08-19T04:10:56.136Z,75.52
2022-08-19T04:13:28.653Z,75.26
2022-08-19T04:16:00.657Z,75.31
2022-08-19T04:18:37.556Z,75.65
2022-08-19T04:21:21.032Z,75.20
2022-08-19T04:23:54.301Z,75.43
2022-08-19T04:26:33.520Z,75.81
2022-08-19T04:29:13.003Z,75.72
2022-08-19T04:31:46.468Z,75.97
2022-08-19T04:34:23.318Z,75.97
2022-08-19T04:36:57.499Z,76.10
2022-08-19T04:39:50.270Z,76.24
2022-08-19T04:42:40.276Z,76.31
2022-08-19T04:45:15.643Z,77.13
2022-08-19T04:47:58.651Z,77.24
2022-08-19T04:50:43.997Z,77.30
2022-08-19T04:53:16.297Z,77.59
2022-08-19T04:55:48.247Z,77.92
2022-08-19T04:58:20.236Z,78.38
2022-08-19T05:00:52.904Z,77.48
2022-08-19T05:03:28.771Z,78.33
2022-08-19T05:06:08.504Z,78.38
2022-08-19T05:08:44.035Z,78.60
2022-08-19T05:11:27.347Z,79.34
2022-08-19T05:13:59.315Z,79.22
2022-08-19T05:16:31.277Z,79.46
2022-08-19T05:19:22.094Z,79.57
2022-08-19T05:22:13.248Z,79.22
2022-08-19T05:25:09.207Z,79.29
2022-08-19T05:27:38.050Z,79.13
2022-08-19T05:30:12.175Z,79.89
2022-08-19T05:32:44.585Z,80.08
2022-08-19T05:35:16.548Z,79.22
2022-08-19T05:37:48.500Z,79.71
2022-08-19T05:40:25.018Z,79.83
2022-08-19T05:42:58.794Z,79.27
2022-08-19T05:45:30.841Z,79.35
2022-08-19T05:48:02.953Z,78.98
2022-08-19T05:50:37.568Z,78.36
2022-08-19T05:53:10.046Z,79.01
2022-08-19T05:55:42.017Z,78.30
2022-08-19T05:58:14.290Z,78.69
2022-08-19T06:00:46.535Z,78.73
2022-08-19T06:03:18.519Z,78.58
2022-08-19T06:05:52.117Z,78.87
2022-08-19T06:08:34.651Z,78.19
2022-08-19T06:11:39.703Z,78.53
2022-08-19T06:14:19.608Z,78.53
2022-08-19T06:17:06.761Z,77.90
2022-08-19T06:19:40.498Z,77.73
2022-08-19T06:22:14.143Z,77.49
2022-08-19T06:24:46.151Z,76.65
2022-08-19T06:27:18.099Z,76.64
2022-08-19T06:29:50.596Z,76.30
2022-08-19T06:32:22.634Z,76.18
2022-08-19T06:34:54.598Z,76.31
2022-08-19T06:37:26.596Z,76.62
2022-08-19T06:39:58.581Z,75.56
2022-08-19T06:42:31.500Z,76.54
2022-08-19T06:45:09.249Z,76.18
2022-08-19T06:47:48.067Z,76.01
2022-08-19T06:50:20.502Z,76.32
2022-08-19T06:52:53.132Z,75.64
2022-08-19T06:55:25.441Z,75.20
2022-08-19T06:57:57.896Z,73.72
2022-08-19T07:03:22.226Z,73.14
2022-08-19T07:05:54.202Z,73.07
2022-08-19T07:08:27.599Z,72.59
2022-08-19T07:11:01.737Z,73.14
2022-08-19T07:13:44.496Z,72.69
2022-08-19T07:16:21.695Z,72.17
2022-08-19T07:19:11.527Z,72.71
2022-08-19T07:21:52.015Z,72.71
2022-08-19T07:24:27.168Z,71.72
2022-08-19T07:27:13.054Z,71.46
2022-08-19T07:29:47.614Z,69.89
2022-08-19T07:32:28.501Z,69.74
2022-08-19T07:35:01.778Z,69.81
2022-08-19T07:37:33.910Z,69.02
2022-08-19T07:40:08.341Z,67.84
2022-08-19T07:42:40.425Z,67.41
2022-08-19T07:45:12.625Z,66.69
2022-08-19T07:47:49.020Z,66.21
2022-08-19T07:50:22.947Z,65.29
2022-08-19T07:52:54.929Z,63.01
2022-08-19T07:55:42.086Z,60.22
2022-08-19T07:58:19.393Z,57.63
2022-08-19T08:00:52.468Z,55.94
2022-08-19T08:03:44.705Z,55.15
2022-08-19T08:06:36.084Z,53.64
2022-08-19T08:09:12.628Z,53.63
2022-08-19T08:11:53.851Z,50.21
2022-08-19T08:14:37.930Z,47.17
2022-08-19T08:17:17.452Z,46.51
2022-08-19T08:20:10.273Z,45.90
2022-08-19T08:23:05.546Z,46.72
2022-08-19T08:25:38.347Z,47.03
2022-08-19T08:28:17.372Z,47.46
2022-08-19T08:30:50.937Z,47.89
2022-08-19T08:33:33.816Z,48.11
2022-08-19T08:36:07.347Z,48.62
2022-08-19T08:38:40.905Z,47.46
2022-08-19T08:41:31.909Z,49.16
2022-08-19T08:44:08.525Z,48.99
2022-08-19T08:47:00.312Z,48.94
2022-08-19T08:49:51.817Z,45.34
2022-08-19T08:52:33.351Z,43.52
2022-08-19T08:55:11.631Z,43.14
2022-08-19T08:57:49.884Z,43.26
2022-08-19T09:00:33.122Z,40.82
2022-08-19T09:03:12.772Z,37.75
2022-08-19T09:05:55.517Z,35.87
2022-08-19T09:08:37.004Z,33.10
2022-08-19T09:11:16.929Z,35.50
2022-08-19T09:14:40.821Z,33.33
2022-08-19T09:17:11.252Z,33.06
2022-08-19T09:20:17.523Z,32.68
2022-08-19T09:22:52.794Z,33.76
2022-08-19T09:25:26.964Z,33.70
2022-08-19T09:28:05.505Z,34.23
2022-08-19T09:30:42.538Z,33.70
2022-08-19T09:33:14.727Z,34.30
2022-08-19T09:35:49.749Z,34.50
2022-08-19T09:38:25.365Z,35.50
2022-08-19T09:40:57.332Z,35.21
2022-08-19T09:43:33.253Z,35.69
2022-08-19T09:46:10.063Z,37.19
2022-08-19T09:48:43.343Z,36.88
2022-08-19T09:51:21.413Z,37.15
2022-08-19T09:53:57.838Z,36.08
2022-08-19T09:56:31.406Z,36.23
2022-08-19T09:59:05.217Z,35.32
2022-08-19T10:01:37.385Z,33.31
2022-08-19T10:04:20.118Z,33.11
2022-08-19T10:06:57.413Z,33.08
2022-08-19T10:09:34.482Z,31.09
2022-08-19T10:12:11.170Z,32.64
2022-08-19T10:14:43.594Z,32.39
2022-08-19T10:17:17.993Z,32.08
2022-08-19T10:19:55.548Z,31.75
2022-08-19T10:22:28.125Z,32.73
2022-08-19T10:25:00.107Z,31.42
2022-08-19T10:27:32.636Z,30.89
2022-08-19T10:30:10.088Z,30.95
2022-08-19T10:32:46.465Z,28.90
2022-08-19T10:35:21.125Z,29.20
2022-08-19T10:37:57.357Z,28.07
2022-08-19T10:40:30.045Z,27.98
2022-08-19T10:43:02.021Z,27.36
2022-08-19T10:45:34.007Z,27.25
2022-08-19T10:48:06.040Z,26.16
2022-08-19T10:50:56.957Z,25.84
2022-08-19T10:53:28.909Z,25.17
2022-08-19T10:56:19.311Z,23.28
2022-08-19T10:58:51.416Z,23.89
2022-08-19T11:01:23.468Z,23.19
2022-08-19T11:03:55.448Z,21.83
2022-08-19T11:06:27.718Z,19.19
2022-08-19T11:09:01.088Z,18.78
2022-08-19T11:11:33.525Z,19.70
2022-08-19T11:14:14.811Z,18.38
2022-08-19T11:16:48.326Z,17.86
2022-08-19T11:19:20.366Z,16.72
2022-08-19T11:21:54.840Z,16.35
2022-08-19T11:24:31.533Z,15.66
2022-08-19T11:27:10.158Z,16.88
2022-08-19T11:29:42.214Z,16.60
2022-08-19T11:32:14.311Z,17.17
2022-08-19T11:34:46.255Z,16.92
2022-08-19T11:37:18.301Z,15.29
2022-08-19T11:39:53.513Z,15.79
2022-08-19T11:42:44.265Z,14.95
2022-08-19T11:45:16.384Z,14.30
2022-08-19T11:47:48.777Z,14.91
2022-08-19T11:50:21.166Z,14.94
2022-08-19T11:52:59.146Z,15.73
2022-08-19T11:55:31.131Z,15.75
2022-08-19T11:58:06.973Z,15.03
2022-08-19T12:00:51.094Z,13.81
2022-08-19T12:03:23.604Z,14.47
2022-08-19T12:05:55.877Z,13.48
2022-08-19T12:08:27.917Z,13.67
2022-08-19T12:11:02.067Z,14.54
2022-08-19T12:13:34.187Z,14.83
2022-08-19T12:16:17.836Z,14.31
2022-08-19T12:18:51.944Z,14.55
2022-08-19T12:21:29.633Z,14.41
2022-08-19T12:24:04.775Z,14.06
2022-08-19T12:26:52.841Z,13.88
2022-08-19T12:29:30.512Z,13.67
2022-08-19T12:32:03.926Z,13.63
2022-08-19T12:34:37.831Z,14.55
2022-08-19T12:37:10.054Z,14.88
2022-08-19T12:39:43.597Z,14.56
2022-08-19T12:42:16.057Z,15.19
2022-08-19T12:44:48.672Z,13.79
2022-08-19T12:47:21.498Z,13.75
2022-08-19T12:49:55.771Z,13.78
2022-08-19T12:52:29.189Z,13.71
2022-08-19T12:55:01.301Z,14.02
2022-08-19T12:57:35.671Z,13.78
2022-08-19T13:00:17.808Z,13.55
2022-08-19T13:02:53.044Z,13.56
2022-08-19T13:05:29.635Z,14.18
2022-08-19T13:08:02.676Z,14.37
2022-08-19T13:10:37.053Z,13.83
2022-08-19T13:13:13.517Z,15.30
2022-08-19T13:15:46.367Z,15.43
2022-08-19T13:18:18.304Z,15.41
2022-08-19T13:20:52.648Z,15.94
2022-08-19T13:23:25.147Z,15.40
2022-08-19T13:26:02.451Z,15.69
2022-08-19T13:28:54.275Z,16.13
2022-08-19T13:31:50.200Z,17.28
2022-08-19T13:34:37.978Z,17.54
2022-08-19T13:37:10.006Z,19.06
2022-08-19T13:39:42.023Z,19.08
2022-08-19T13:42:14.953Z,19.19
2022-08-19T13:44:48.824Z,19.03
2022-08-19T13:47:20.926Z,19.94
2022-08-19T13:49:53.209Z,21.13
2022-08-19T13:52:26.104Z,21.64
2022-08-19T13:54:58.180Z,20.76
2022-08-19T13:57:30.148Z,20.58
2022-08-19T14:00:03.784Z,20.55
2022-08-19T14:02:35.977Z,21.21
2022-08-19T14:05:11.439Z,21.24
2022-08-19T14:07:43.773Z,20.88
2022-08-19T14:10:17.717Z,22.35
2022-08-19T14:12:50.310Z,21.69
2022-08-19T14:15:24.228Z,22.40
2022-08-19T14:17:57.131Z,23.25
2022-08-19T14:20:29.392Z,23.41
2022-08-19T14:23:01.934Z,23.69
2022-08-19T14:25:35.177Z,23.25
2022-08-19T14:28:08.719Z,23.65
2022-08-19T14:30:40.802Z,24.15
2022-08-19T14:33:12.865Z,25.17
2022-08-19T14:35:46.025Z,26.10
2022-08-19T14:38:22.018Z,25.89
2022-08-19T14:41:14.925Z,26.34
2022-08-19T14:43:52.450Z,26.99
2022-08-19T14:46:29.636Z,27.77
2022-08-19T14:49:09.521Z,27.69
2022-08-19T14:51:41.768Z,27.43
2022-08-19T14:54:14.459Z,27.75
2022-08-19T14:56:46.570Z,28.11
2022-08-19T14:59:19.365Z,28.38
2022-08-19T15:01:51.540Z,28.28
2022-08-19T15:04:23.518Z,27.96
2022-08-19T15:06:55.680Z,28.13
2022-08-19T15:09:27.656Z,28.53
2022-08-19T15:12:01.435Z,29.06
2022-08-19T15:14:35.310Z,29.01
2022-08-19T15:17:07.348Z,29.20
2022-08-19T15:19:39.894Z,29.33
2022-08-19T15:22:12.062Z,29.50
2022-08-19T15:24:48.022Z,29.59
2022-08-19T15:27:20.502Z,29.75
2022-08-19T15:29:56.485Z,29.09
2022-08-19T15:32:33.403Z,28.89
2022-08-19T15:35:08.111Z,30.13
2022-08-19T15:37:40.159Z,29.49
2022-08-19T15:40:12.706Z,29.12
2022-08-19T15:42:44.971Z,30.21
2022-08-19T15:45:18.752Z,31.51
2022-08-19T15:47:50.834Z,31.87
2022-08-19T15:50:23.538Z,31.95
2022-08-19T15:53:03.930Z,32.35
2022-08-19T15:55:44.329Z,32.78
2022-08-19T15:58:35.352Z,33.01
2022-08-19T16:01:27.568Z,32.89
2022-08-19T16:04:20.150Z,33.03
2022-08-19T16:06:57.222Z,32.61
2022-08-19T16:09:31.847Z,32.43
2022-08-19T16:12:06.386Z,32.92
2022-08-19T16:14:38.508Z,33.22
2022-08-19T16:17:12.680Z,33.59
2022-08-19T16:19:44.715Z,32.68
2022-08-19T16:22:17.297Z,31.96
2022-08-19T16:24:49.286Z,32.15
2022-08-19T16:27:22.582Z,33.13
2022-08-19T16:29:54.854Z,33.18
2022-08-19T16:32:27.159Z,33.56
2022-08-19T16:35:03.265Z,33.22
2022-08-19T16:37:38.176Z,32.85
2022-08-19T16:40:11.212Z,33.94
2022-08-19T16:42:43.232Z,33.50
2022-08-19T16:45:15.298Z,33.54
2022-08-19T16:47:47.359Z,33.65
2022-08-19T16:50:33.559Z,33.68
2022-08-19T16:53:21.716Z,33.67
2022-08-19T16:55:57.244Z,33.83
2022-08-19T16:58:34.165Z,33.91
2022-08-19T17:01:10.446Z,33.68
2022-08-19T17:03:42.781Z,33.99
2022-08-19T17:06:26.505Z,34.38
2022-08-19T17:09:01.248Z,34.53
2022-08-19T17:11:33.977Z,34.77
2022-08-19T17:14:06.667Z,34.90
2022-08-19T17:16:39.477Z,34.63
2022-08-19T17:19:11.672Z,34.76
2022-08-19T17:21:43.755Z,34.66
2022-08-19T17:24:15.763Z,34.41
2022-08-19T17:26:47.731Z,34.67
2022-08-19T17:29:19.805Z,35.01
2022-08-19T17:31:51.810Z,34.89
2022-08-19T17:34:23.908Z,34.46
2022-08-19T17:36:58.466Z,33.75
2022-08-19T17:39:30.491Z,33.48
2022-08-19T17:42:09.955Z,33.81
2022-08-19T17:44:42.249Z,33.29
2022-08-19T17:47:16.766Z,33.65
2022-08-19T17:49:48.929Z,33.65
2022-08-19T17:52:22.103Z,33.41
2022-08-19T17:54:54.194Z,33.67
2022-08-19T17:57:26.301Z,33.27
2022-08-19T17:59:58.716Z,33.70
2022-08-19T18:02:31.278Z,33.60
2022-08-19T18:05:05.218Z,34.16
2022-08-19T18:07:37.271Z,34.05
2022-08-19T18:10:10.247Z,34.17
2022-08-19T18:12:44.345Z,34.26
2022-08-19T18:15:17.558Z,34.49
2022-08-19T18:17:49.917Z,34.36
2022-08-19T18:20:22.263Z,34.59
2022-08-19T18:22:57.516Z,34.09
2022-08-19T18:25:50.291Z,34.49
2022-08-19T18:28:23.894Z,35.24
2022-08-19T18:30:56.392Z,34.61
2022-08-19T18:33:28.587Z,34.43
2022-08-19T18:36:01.922Z,34.50
2022-08-19T18:38:52.434Z,34.65
2022-08-19T18:41:43.228Z,35.24
2022-08-19T18:44:34.158Z,34.79
2022-08-19T18:47:24.980Z,35.24
2022-08-19T18:49:57.001Z,35.25
2022-08-19T18:52:29.171Z,35.18
2022-08-19T18:55:02.859Z,34.88
2022-08-19T18:57:35.462Z,35.43
2022-08-19T19:00:09.183Z,35.50
2022-08-19T19:02:41.372Z,35.29
2022-08-19T19:05:15.288Z,35.50
2022-08-19T19:07:47.905Z,36.03
2022-08-19T19:10:22.822Z,35.81
2022-08-19T19:12:55.101Z,36.43
2022-08-19T19:15:29.554Z,36.50
2022-08-19T19:18:01.584Z,37.01
2022-08-19T19:20:36.458Z,37.24
2022-08-19T19:23:09.257Z,37.62
2022-08-19T19:25:50.564Z,37.23
2022-08-19T19:28:28.407Z,37.96
2022-08-19T19:31:00.594Z,37.64
2022-08-19T19:33:33.258Z,38.09
2022-08-19T19:36:05.770Z,38.84
2022-08-19T19:38:37.818Z,38.97
2022-08-19T19:41:10.137Z,39.01
2022-08-19T19:43:42.874Z,39.32
2022-08-19T19:46:15.725Z,39.51
2022-08-19T19:48:48.287Z,40.06
2022-08-19T19:51:20.606Z,40.01
2022-08-19T19:53:54.180Z,40.16
2022-08-19T19:56:26.547Z,40.30
2022-08-19T19:58:58.814Z,40.68
2022-08-19T20:01:31.137Z,40.65
2022-08-19T20:04:03.615Z,41.42
2022-08-19T20:06:35.647Z,41.17
2022-08-19T20:09:08.209Z,41.17
2022-08-19T20:11:44.777Z,41.44
2022-08-19T20:14:31.802Z,41.65
2022-08-19T20:17:05.432Z,41.85
2022-08-19T20:19:37.762Z,41.94
2022-08-19T20:22:10.554Z,42.43
2022-08-19T20:24:44.898Z,42.61
2022-08-19T20:27:19.071Z,42.62
2022-08-19T20:29:54.991Z,43.12
2022-08-19T20:32:26.982Z,43.40
2022-08-19T20:34:59.933Z,43.29
2022-08-19T20:37:32.504Z,43.03
2022-08-19T20:40:06.974Z,43.22
2022-08-19T20:42:42.534Z,43.04
2022-08-19T20:45:32.159Z,43.26
2022-08-19T20:48:07.656Z,43.46
2022-08-19T20:50:40.497Z,43.22
2022-08-19T20:53:19.894Z,43.43
2022-08-19T20:55:55.461Z,43.38
2022-08-19T20:58:31.938Z,43.05
2022-08-19T21:01:06.566Z,43.12
2022-08-19T21:03:43.391Z,43.82
2022-08-19T21:06:15.564Z,43.73
2022-08-19T21:08:47.776Z,43.70
2022-08-19T21:11:21.428Z,43.97
2022-08-19T21:13:53.480Z,44.05
2022-08-19T21:16:25.570Z,44.09
2022-08-19T21:18:57.513Z,44.17
2022-08-19T21:21:29.529Z,44.28
2022-08-19T21:24:01.818Z,44.28
2022-08-19T21:26:33.818Z,44.30
2022-08-19T21:29:06.162Z,44.68
2022-08-19T21:31:38.199Z,44.63
2022-08-19T21:34:13.014Z,44.69
2022-08-19T21:36:45.053Z,44.57
2022-08-19T21:39:16.989Z,44.71
2022-08-19T21:41:49.084Z,44.98
2022-08-19T21:44:21.309Z,44.70
2022-08-19T21:46:53.354Z,45.34
2022-08-19T21:49:25.465Z,45.19
2022-08-19T21:51:58.597Z,45.44
2022-08-19T21:54:38.129Z,46.09
2022-08-19T21:57:11.107Z,45.59
2022-08-19T21:59:44.146Z,46.18
2022-08-19T22:02:21.582Z,46.46
2022-08-19T22:04:54.039Z,46.54
2022-08-19T22:07:26.243Z,46.06
2022-08-19T22:09:58.235Z,46.58
2022-08-19T22:12:35.152Z,46.51
2022-08-19T22:15:09.184Z,46.37
2022-08-19T22:17:42.287Z,46.79
2022-08-19T22:20:19.985Z,46.69
2022-08-19T22:22:57.158Z,46.67
2022-08-19T22:25:45.698Z,46.14
2022-08-19T22:28:18.745Z,46.64
2022-08-19T22:30:51.320Z,46.64
2022-08-19T22:33:24.226Z,46.64
2022-08-19T22:35:57.408Z,46.88
2022-08-19T22:38:29.436Z,47.02
2022-08-19T22:41:02.099Z,47.48
2022-08-19T22:43:34.366Z,47.59
2022-08-19T22:46:17.122Z,47.67
2022-08-19T22:49:01.306Z,48.20
2022-08-19T22:51:52.742Z,48.00
2022-08-19T22:54:25.014Z,47.92
2022-08-19T22:56:57.050Z,48.24
2022-08-19T22:59:29.680Z,48.38
2022-08-19T23:02:01.676Z,48.29
2022-08-19T23:04:34.225Z,47.81
2022-08-19T23:07:06.319Z,47.57
2022-08-19T23:09:41.530Z,47.66
2022-08-19T23:12:17.124Z,47.90
2022-08-19T23:14:49.119Z,48.12
2022-08-19T23:17:21.446Z,47.47
2022-08-19T23:19:53.484Z,48.39
2022-08-19T23:22:25.899Z,48.28
2022-08-19T23:25:14.882Z,48.43
2022-08-19T23:28:07.900Z,48.05
2022-08-19T23:30:45.497Z,48.46
2022-08-19T23:33:26.533Z,47.94
2022-08-19T23:36:20.283Z,48.45
2022-08-19T23:38:52.415Z,48.89
2022-08-19T23:41:27.200Z,48.89
2022-08-19T23:44:00.438Z,49.02
2022-08-19T23:46:32.556Z,49.03
2022-08-19T23:49:18.203Z,49.49
2022-08-19T23:51:50.192Z,49.44
2022-08-19T23:54:23.567Z,49.31
2022-08-19T23:57:15.553Z,48.13
2022-08-19T23:59:47.551Z,47.85
